Time;durP1;ratioP1;P1;durP2;ratioP2;P2;SDS_P1;SDS_P2;PMS_P1;PMS_P2;Temp;Humidity;BMP_temperature;BMP_pressure;BME280_temperature;BME280_humidity;BME280_pressure;Samples;Min_cycle;Max_cycle;Signal;HPM_P1;HPM_P2
2022/10/14 00:01:31;;;;;;;15.45;6.35;;;;;;;;;;4970203;28;20054;-62
2022/10/14 00:03:59;;;;;;;13.90;5.90;;;;;;;;;;4968030;28;20149;-64
2022/10/14 00:06:26;;;;;;;19.98;8.10;;;;;;;;;;4969979;28;20125;-64
2022/10/14 00:08:53;;;;;;;16.07;6.03;;;;;;;;;;4964583;28;20055;-62
2022/10/14 00:11:21;;;;;;;16.17;6.63;;;;;;;;;;4970262;28;20312;-62
2022/10/14 00:13:48;;;;;;;13.73;5.80;;;;;;;;;;4964408;28;20050;-62
2022/10/14 00:16:16;;;;;;;13.32;5.68;;;;;;;;;;4962672;28;20310;-63
2022/10/14 00:18:47;;;;;;;13.60;6.10;;;;;;;;;;4957661;28;20070;-65
2022/10/14 00:21:14;;;;;;;16.55;6.68;;;;;;;;;;4969949;28;20069;-67
2022/10/14 00:23:40;;;;;;;15.68;6.20;;;;;;;;;;4964243;28;20062;-63
2022/10/14 00:26:07;;;;;;;17.80;7.53;;;;;;;;;;4969996;28;20104;-63
2022/10/14 00:28:33;;;;;;;14.10;6.07;;;;;;;;;;4964464;28;20062;-67
2022/10/14 00:31:01;;;;;;;13.90;6.07;;;;;;;;;;4969453;28;20058;-65
2022/10/14 00:33:28;;;;;;;13.30;5.80;;;;;;;;;;4964088;28;20050;-62
2022/10/14 00:35:56;;;;;;;13.60;5.80;;;;;;;;;;4969541;28;20058;-67
2022/10/14 00:38:23;;;;;;;;;;;;;;;;;;4963849;28;20100;-63
2022/10/14 00:40:49;;;;;;;13.70;5.38;;;;;;;;;;4969941;28;19925;-67
2022/10/14 00:43:16;;;;;;;19.15;7.90;;;;;;;;;;4963775;28;20054;-63
2022/10/14 00:45:42;;;;;;;17.05;6.60;;;;;;;;;;4969527;28;20085;-65
2022/10/14 00:48:09;;;;;;;15.70;5.60;;;;;;;;;;4969515;28;20050;-62
2022/10/14 00:50:37;;;;;;;16.23;6.30;;;;;;;;;;4963602;28;20052;-63
2022/10/14 00:53:05;;;;;;;13.30;5.47;;;;;;;;;;4975964;28;20146;-62
2022/10/14 00:55:31;;;;;;;14.32;5.68;;;;;;;;;;4963908;28;20181;-61
2022/10/14 00:57:58;;;;;;;13.45;5.72;;;;;;;;;;4969359;28;20069;-61
2022/10/14 01:00:25;;;;;;;13.18;5.28;;;;;;;;;;4962053;28;20104;-62
2022/10/14 01:02:51;;;;;;;14.57;5.43;;;;;;;;;;4969781;28;20047;-62
2022/10/14 01:05:20;;;;;;;12.85;5.88;;;;;;;;;;4963756;28;20100;-63
2022/10/14 01:07:54;;;;;;;14.38;6.35;;;;;;;;;;4968997;28;20047;-64
2022/10/14 01:10:27;;;;;;;14.82;5.97;;;;;;;;;;4964448;28;20038;-63
2022/10/14 01:13:01;;;;;;;18.35;7.88;;;;;;;;;;4969524;28;20062;-62
2022/10/14 01:15:33;;;;;;;13.88;6.25;;;;;;;;;;4960304;28;20089;-62
2022/10/14 01:18:04;;;;;;;18.63;7.05;;;;;;;;;;4969823;28;20054;-64
2022/10/14 01:20:40;;;;;;;16.30;6.70;;;;;;;;;;4967813;28;20095;-66
2022/10/14 01:23:22;;;;;;;14.68;6.07;;;;;;;;;;4973005;28;20054;-67
2022/10/14 01:25:54;;;;;;;12.35;5.47;;;;;;;;;;4967570;28;20271;-66
2022/10/14 01:28:25;;;;;;;12.63;5.60;;;;;;;;;;4973344;28;20054;-65
2022/10/14 01:30:58;;;;;;;15.27;6.28;;;;;;;;;;4967803;28;20058;-65
2022/10/14 01:33:26;;;;;;;13.02;6.03;;;;;;;;;;4973072;28;20077;-67
2022/10/14 01:35:58;;;;;;;15.55;6.43;;;;;;;;;;4968105;28;20046;-64
2022/10/14 01:38:27;;;;;;;13.57;6.07;;;;;;;;;;4973223;28;20077;-66
2022/10/14 01:40:55;;;;;;;14.63;6.22;;;;;;;;;;4964337;28;20105;-65
2022/10/14 01:43:23;;;;;;;11.48;5.68;;;;;;;;;;4972760;28;20124;-65
2022/10/14 01:45:51;;;;;;;15.18;6.85;;;;;;;;;;4967149;28;20069;-68
2022/10/14 01:48:22;;;;;;;14.50;6.65;;;;;;;;;;4972709;28;20129;-66
2022/10/14 01:50:49;;;;;;;14.13;6.25;;;;;;;;;;4969318;28;20057;-65
2022/10/14 01:53:18;;;;;;;14.32;6.35;;;;;;;;;;4970999;28;20054;-67
2022/10/14 01:55:48;;;;;;;14.45;7.00;;;;;;;;;;4972494;28;20056;-68
2022/10/14 01:58:17;;;;;;;15.30;6.97;;;;;;;;;;4948980;28;20050;-67
2022/10/14 02:00:43;;;;;;;;;;;;;;;;;;4955290;28;20050;-63
2022/10/14 02:03:11;;;;;;;11.25;5.38;;;;;;;;;;4967170;28;19933;-68
2022/10/14 02:05:43;;;;;;;15.52;6.30;;;;;;;;;;4972581;28;20042;-64
2022/10/14 02:08:11;;;;;;;13.95;6.97;;;;;;;;;;4969506;28;20050;-63
2022/10/14 02:10:44;;;;;;;12.77;6.35;;;;;;;;;;4971331;28;20043;-63
2022/10/14 02:13:18;;;;;;;16.90;7.40;;;;;;;;;;4966967;28;20054;-65
2022/10/14 02:15:49;;;;;;;20.85;9.75;;;;;;;;;;4971317;28;20109;-63
2022/10/14 02:18:21;;;;;;;19.15;9.68;;;;;;;;;;4966627;28;20113;-65
2022/10/14 02:20:53;;;;;;;22.38;8.85;;;;;;;;;;4972025;28;20062;-66
2022/10/14 02:23:22;;;;;;;13.55;6.18;;;;;;;;;;4966331;28;20159;-64
2022/10/14 02:25:50;;;;;;;15.43;6.53;;;;;;;;;;4971921;28;20062;-66
2022/10/14 02:28:19;;;;;;;14.80;6.60;;;;;;;;;;4965958;28;20050;-66
2022/10/14 02:30:49;;;;;;;15.25;7.03;;;;;;;;;;4971842;28;20054;-67
2022/10/14 02:33:19;;;;;;;16.77;7.43;;;;;;;;;;4966575;28;20061;-66
2022/10/14 02:35:46;;;;;;;16.15;6.93;;;;;;;;;;4972094;28;20058;-63
2022/10/14 02:38:15;;;;;;;17.45;7.15;;;;;;;;;;4966231;28;20046;-66
2022/10/14 02:40:44;;;;;;;14.43;6.60;;;;;;;;;;4972245;28;20054;-65
2022/10/14 02:43:11;;;;;;;16.13;6.72;;;;;;;;;;4966297;28;20077;-65
2022/10/14 02:45:38;;;;;;;21.08;8.48;;;;;;;;;;4972088;28;20046;-64
2022/10/14 02:48:05;;;;;;;13.00;6.50;;;;;;;;;;4967805;28;20077;-64
2022/10/14 02:50:32;;;;;;;14.20;6.82;;;;;;;;;;4952279;28;20055;-64
2022/10/14 02:52:58;;;;;;;14.80;6.43;;;;;;;;;;4953124;28;20378;-67
2022/10/14 02:55:26;;;;;;;16.20;6.95;;;;;;;;;;4963787;28;20571;-63
2022/10/14 02:57:53;;;;;;;16.88;8.02;;;;;;;;;;4971729;28;20116;-67
2022/10/14 03:00:21;;;;;;;15.53;6.87;;;;;;;;;;4965626;28;20123;-62
2022/10/14 03:02:48;;;;;;;19.40;7.43;;;;;;;;;;4971214;28;20050;-67
2022/10/14 03:05:14;;;;;;;15.52;7.13;;;;;;;;;;4965949;28;20058;-64
2022/10/14 03:07:41;;;;;;;25.65;10.18;;;;;;;;;;4971132;28;20073;-63
2022/10/14 03:10:08;;;;;;;15.50;7.22;;;;;;;;;;4965322;28;20054;-66
2022/10/14 03:12:36;;;;;;;16.48;7.25;;;;;;;;;;4970923;28;20108;-68
2022/10/14 03:15:02;;;;;;;16.97;6.60;;;;;;;;;;4966057;28;20043;-63
2022/10/14 03:17:29;;;;;;;15.60;6.57;;;;;;;;;;4970726;28;20309;-67
2022/10/14 03:19:56;;;;;;;16.52;7.22;;;;;;;;;;4965570;28;20545;-67
2022/10/14 03:22:22;;;;;;;25.88;10.88;;;;;;;;;;4971136;28;20054;-62
2022/10/14 03:24:49;;;;;;;16.80;8.00;;;;;;;;;;4966293;28;20069;-67
2022/10/14 03:27:15;;;;;;;17.65;7.70;;;;;;;;;;4970212;28;20053;-65
2022/10/14 03:29:43;;;;;;;23.13;9.15;;;;;;;;;;4967155;28;20117;-67
2022/10/14 03:32:10;;;;;;;21.63;9.45;;;;;;;;;;4970378;28;20054;-61
2022/10/14 03:34:36;;;;;;;23.02;9.13;;;;;;;;;;4970817;28;20057;-62
2022/10/14 03:37:03;;;;;;;17.63;7.88;;;;;;;;;;4964778;28;20054;-61
2022/10/14 03:39:30;;;;;;;16.40;7.38;;;;;;;;;;4970861;28;20183;-61
2022/10/14 03:41:57;;;;;;;16.77;7.55;;;;;;;;;;4959656;28;20042;-62
2022/10/14 03:44:23;;;;;;;20.85;8.50;;;;;;;;;;4970706;28;20109;-62
2022/10/14 03:46:51;;;;;;;17.58;7.90;;;;;;;;;;4964436;28;20050;-61
2022/10/14 03:49:18;;;;;;;20.48;8.00;;;;;;;;;;4970475;28;20046;-66
2022/10/14 03:51:44;;;;;;;20.27;8.55;;;;;;;;;;4964304;28;20050;-64
2022/10/14 03:54:11;;;;;;;17.45;7.70;;;;;;;;;;4970887;28;20058;-61
2022/10/14 03:56:37;;;;;;;20.02;8.27;;;;;;;;;;4964154;28;20050;-61
2022/10/14 03:59:04;;;;;;;18.08;8.30;;;;;;;;;;4970347;28;20077;-63
2022/10/14 04:01:30;;;;;;;21.17;8.70;;;;;;;;;;4964843;28;20155;-62
2022/10/14 04:03:58;;;;;;;18.27;7.82;;;;;;;;;;4970219;28;20057;-61
2022/10/14 04:06:26;;;;;;;20.40;7.95;;;;;;;;;;4964829;28;20165;-62
2022/10/14 04:08:53;;;;;;;25.70;8.83;;;;;;;;;;4970570;28;20050;-64
2022/10/14 04:11:19;;;;;;;24.85;9.80;;;;;;;;;;4965469;28;20305;-62
2022/10/14 04:13:46;;;;;;;20.17;9.13;;;;;;;;;;4968395;28;20065;-63
2022/10/14 04:16:12;;;;;;;29.13;11.52;;;;;;;;;;4970141;28;20049;-63
2022/10/14 04:18:40;;;;;;;22.90;9.07;;;;;;;;;;4964008;28;20058;-64
2022/10/14 04:21:09;;;;;;;26.65;9.10;;;;;;;;;;4970088;28;20127;-60
2022/10/14 04:23:36;;;;;;;20.85;8.50;;;;;;;;;;4965484;28;20136;-62
2022/10/14 04:26:03;;;;;;;21.92;9.05;;;;;;;;;;4970076;28;20053;-64
2022/10/14 04:28:29;;;;;;;21.75;8.98;;;;;;;;;;4963858;28;20046;-61
2022/10/14 04:30:56;;;;;;;23.20;8.02;;;;;;;;;;4970322;28;20061;-63
2022/10/14 04:33:22;;;;;;;25.67;9.88;;;;;;;;;;4964513;28;20061;-65
2022/10/14 04:35:49;;;;;;;20.75;8.50;;;;;;;;;;4969827;28;20047;-63
2022/10/14 04:38:18;;;;;;;20.30;8.07;;;;;;;;;;4963189;28;20148;-63
2022/10/14 04:40:45;;;;;;;21.67;9.55;;;;;;;;;;4970204;28;20124;-61
2022/10/14 04:43:11;;;;;;;21.30;8.95;;;;;;;;;;4964368;28;20058;-61
2022/10/14 04:45:38;;;;;;;21.90;9.27;;;;;;;;;;4969491;28;20057;-61
2022/10/14 04:48:05;;;;;;;27.58;11.38;;;;;;;;;;4964257;28;20061;-65
2022/10/14 04:50:31;;;;;;;21.02;8.63;;;;;;;;;;4970000;28;20061;-63
2022/10/14 04:52:58;;;;;;;31.52;10.98;;;;;;;;;;4964070;28;20085;-62
2022/10/14 04:55:26;;;;;;;20.48;8.90;;;;;;;;;;4969521;28;20054;-63
2022/10/14 04:57:52;;;;;;;21.63;8.20;;;;;;;;;;4969225;28;20054;-63
2022/10/14 05:00:19;;;;;;;28.23;11.18;;;;;;;;;;4962296;28;20066;-65
2022/10/14 05:02:46;;;;;;;22.10;8.23;;;;;;;;;;4971397;28;20143;-62
2022/10/14 05:05:13;;;;;;;21.40;8.60;;;;;;;;;;4958780;28;20059;-67
2022/10/14 05:07:40;;;;;;;20.35;8.32;;;;;;;;;;4971714;28;20191;-62
2022/10/14 05:10:08;;;;;;;19.35;8.63;;;;;;;;;;4962431;28;20058;-61
2022/10/14 05:12:37;;;;;;;19.52;8.07;;;;;;;;;;4970800;28;20054;-66
2022/10/14 05:15:04;;;;;;;29.38;11.80;;;;;;;;;;4964608;28;20077;-62
2022/10/14 05:17:31;;;;;;;21.05;8.68;;;;;;;;;;4969773;28;20161;-62
2022/10/14 05:19:58;;;;;;;22.52;9.13;;;;;;;;;;4965574;28;20054;-62
2022/10/14 05:22:25;;;;;;;22.40;9.65;;;;;;;;;;4970336;28;20103;-63
2022/10/14 05:24:51;;;;;;;19.80;8.35;;;;;;;;;;4965963;28;20160;-63
2022/10/14 05:27:18;;;;;;;22.33;9.27;;;;;;;;;;4971812;28;20050;-63
2022/10/14 05:29:47;;;;;;;20.85;9.27;;;;;;;;;;4964936;28;20050;-65
2022/10/14 05:32:16;;;;;;;20.80;8.15;;;;;;;;;;4969553;28;20054;-62
2022/10/14 05:34:42;;;;;;;;;;;;;;;;;;4966029;28;20058;-63
2022/10/14 05:37:09;;;;;;;19.77;8.00;;;;;;;;;;4970320;28;19928;-66
2022/10/14 05:39:35;;;;;;;20.70;8.70;;;;;;;;;;4971495;28;20058;-64
2022/10/14 05:42:02;;;;;;;28.45;10.23;;;;;;;;;;4964610;28;20066;-64
2022/10/14 05:44:28;;;;;;;32.05;13.10;;;;;;;;;;4970024;28;20065;-64
2022/10/14 05:46:56;;;;;;;26.38;10.20;;;;;;;;;;4964399;28;20054;-62
2022/10/14 05:49:24;;;;;;;21.58;9.23;;;;;;;;;;4967418;28;20061;-62
2022/10/14 05:51:50;;;;;;;21.10;8.75;;;;;;;;;;4961629;28;20047;-62
2022/10/14 05:54:17;;;;;;;20.55;8.77;;;;;;;;;;4967442;28;20068;-62
2022/10/14 05:56:43;;;;;;;22.73;10.52;;;;;;;;;;4967068;28;20070;-61
2022/10/14 05:59:10;;;;;;;21.27;8.85;;;;;;;;;;4964594;28;20074;-63
2022/10/14 06:01:37;;;;;;;18.02;7.88;;;;;;;;;;4959553;28;20050;-62
2022/10/14 06:04:05;;;;;;;19.42;8.52;;;;;;;;;;4950546;28;20074;-61
2022/10/14 06:06:31;;;;;;;20.02;8.50;;;;;;;;;;4954360;28;20058;-60
2022/10/14 06:08:59;;;;;;;20.17;7.38;;;;;;;;;;4972080;28;20068;-60
2022/10/14 06:11:26;;;;;;;20.80;8.00;;;;;;;;;;4966270;28;20042;-62
2022/10/14 06:13:52;;;;;;;18.48;7.38;;;;;;;;;;4972061;28;20146;-62
2022/10/14 06:16:19;;;;;;;19.83;8.30;;;;;;;;;;4966338;28;20160;-65
2022/10/14 06:18:46;;;;;;;16.92;7.35;;;;;;;;;;4971696;28;20050;-65
2022/10/14 06:21:14;;;;;;;17.50;7.95;;;;;;;;;;4972494;28;20081;-65
2022/10/14 06:23:40;;;;;;;16.85;7.70;;;;;;;;;;4966711;28;20050;-65
2022/10/14 06:26:08;;;;;;;17.08;7.45;;;;;;;;;;4971914;28;20093;-64
2022/10/14 06:28:35;;;;;;;15.95;7.38;;;;;;;;;;4965356;28;20141;-65
2022/10/14 06:31:02;;;;;;;17.67;7.40;;;;;;;;;;4971943;28;20050;-66
2022/10/14 06:33:29;;;;;;;16.80;7.68;;;;;;;;;;4966880;28;20090;-63
2022/10/14 06:35:56;;;;;;;15.00;6.63;;;;;;;;;;4971922;28;20055;-62
2022/10/14 06:38:30;;;;;;;14.30;6.22;;;;;;;;;;4965813;28;20145;-62
2022/10/14 06:40:56;;;;;;;16.70;6.72;;;;;;;;;;4971859;28;20053;-66
2022/10/14 06:43:23;;;;;;;14.73;6.28;;;;;;;;;;4966558;28;20112;-65
2022/10/14 06:45:49;;;;;;;16.23;6.70;;;;;;;;;;4971334;28;20109;-62
2022/10/14 06:48:16;;;;;;;14.73;6.45;;;;;;;;;;4965719;28;20113;-62
2022/10/14 06:50:43;;;;;;;15.30;6.80;;;;;;;;;;4971772;28;20104;-63
2022/10/14 06:53:09;;;;;;;14.55;6.68;;;;;;;;;;4965797;28;20046;-66
2022/10/14 06:55:38;;;;;;;13.88;6.90;;;;;;;;;;4971326;28;20057;-62
2022/10/14 06:58:06;;;;;;;;;;;;;;;;;;4966132;28;20124;-64
2022/10/14 07:00:33;;;;;;;;;;;;;;;;;;4986542;28;19957;-62
2022/10/14 07:02:59;;;;;;;11.73;5.43;;;;;;;;;;4966769;28;19987;-63
2022/10/14 07:05:26;;;;;;;14.15;6.75;;;;;;;;;;4951731;28;20054;-62
2022/10/14 07:07:55;;;;;;;12.18;5.65;;;;;;;;;;4953753;28;20117;-63
2022/10/14 07:10:21;;;;;;;14.00;5.93;;;;;;;;;;4966017;28;20042;-61
2022/10/14 07:12:53;;;;;;;12.70;5.90;;;;;;;;;;4969740;28;20109;-64
2022/10/14 07:15:19;;;;;;;12.07;6.10;;;;;;;;;;4964041;28;20050;-65
2022/10/14 07:17:47;;;;;;;13.77;5.85;;;;;;;;;;4970765;28;20066;-66
2022/10/14 07:20:14;;;;;;;12.20;5.93;;;;;;;;;;4965609;28;20132;-64
2022/10/14 07:22:41;;;;;;;11.60;5.25;;;;;;;;;;4971687;28;20066;-64
2022/10/14 07:25:08;;;;;;;10.82;5.40;;;;;;;;;;4964729;28;20066;-65
2022/10/14 07:27:35;;;;;;;11.20;5.20;;;;;;;;;;4970314;28;20072;-61
2022/10/14 07:30:03;;;;;;;11.40;5.35;;;;;;;;;;4965154;28;20128;-65
2022/10/14 07:32:30;;;;;;;12.55;5.85;;;;;;;;;;4970905;28;20074;-65
2022/10/14 07:34:57;;;;;;;10.93;5.57;;;;;;;;;;4965046;28;20058;-63
2022/10/14 07:37:24;;;;;;;9.82;5.18;;;;;;;;;;4970348;28;20054;-65
2022/10/14 07:39:51;;;;;;;10.82;5.00;;;;;;;;;;4965240;28;20050;-61
2022/10/14 07:42:17;;;;;;;12.85;5.35;;;;;;;;;;4970262;28;20054;-64
2022/10/14 07:44:44;;;;;;;12.40;5.43;;;;;;;;;;4964578;28;20138;-64
2022/10/14 07:47:12;;;;;;;11.55;5.60;;;;;;;;;;4969482;28;20057;-64
2022/10/14 07:49:39;;;;;;;11.10;5.15;;;;;;;;;;4961328;28;20066;-67
2022/10/14 07:52:06;;;;;;;10.57;4.72;;;;;;;;;;4964613;28;20081;-65
2022/10/14 07:54:32;;;;;;;9.57;4.88;;;;;;;;;;4970320;28;20120;-66
2022/10/14 07:56:59;;;;;;;11.82;5.55;;;;;;;;;;4963914;28;20058;-63
2022/10/14 07:59:26;;;;;;;9.80;5.15;;;;;;;;;;4968923;28;20074;-65
2022/10/14 08:01:55;;;;;;;9.73;5.00;;;;;;;;;;4964361;28;20053;-63
2022/10/14 08:04:23;;;;;;;10.40;5.30;;;;;;;;;;4970068;28;20137;-63
2022/10/14 08:06:50;;;;;;;10.43;5.55;;;;;;;;;;4964992;28;20070;-65
2022/10/14 08:09:17;;;;;;;12.02;5.28;;;;;;;;;;4968829;28;20093;-65
2022/10/14 08:11:43;;;;;;;11.00;4.82;;;;;;;;;;4954631;28;20062;-66
2022/10/14 08:14:10;;;;;;;10.23;5.03;;;;;;;;;;4959791;28;20058;-65
2022/10/14 08:16:36;;;;;;;12.25;5.88;;;;;;;;;;4964485;28;20140;-67
2022/10/14 08:19:05;;;;;;;9.60;4.75;;;;;;;;;;4969398;28;20387;-65
2022/10/14 08:21:33;;;;;;;10.45;5.32;;;;;;;;;;4964113;28;20149;-64
2022/10/14 08:24:00;;;;;;;10.85;4.97;;;;;;;;;;4970010;28;20054;-63
2022/10/14 08:26:28;;;;;;;10.68;5.22;;;;;;;;;;4964407;28;20061;-67
2022/10/14 08:28:54;;;;;;;9.70;5.00;;;;;;;;;;4969719;28;20128;-63
2022/10/14 08:31:21;;;;;;;10.35;5.18;;;;;;;;;;4967300;28;20058;-62
2022/10/14 08:33:49;;;;;;;10.65;6.00;;;;;;;;;;4967923;28;20054;-67
2022/10/14 08:36:15;;;;;;;12.40;5.85;;;;;;;;;;4969175;28;20054;-64
2022/10/14 08:38:45;;;;;;;11.52;5.70;;;;;;;;;;4963369;28;20069;-63
2022/10/14 08:41:22;;;;;;;11.15;5.20;;;;;;;;;;4968640;28;20057;-62
2022/10/14 08:43:50;;;;;;;11.13;5.40;;;;;;;;;;4963649;28;20056;-64
2022/10/14 08:46:21;;;;;;;11.18;5.22;;;;;;;;;;4969194;28;20064;-62
2022/10/14 08:48:51;;;;;;;11.88;5.47;;;;;;;;;;4964091;28;20042;-62
2022/10/14 08:51:19;;;;;;;11.07;5.05;;;;;;;;;;4969259;28;20081;-62
2022/10/14 08:53:51;;;;;;;9.73;5.15;;;;;;;;;;4964228;28;20093;-63
2022/10/14 08:56:17;;;;;;;10.02;4.65;;;;;;;;;;4988492;28;20058;-65
2022/10/14 08:58:47;;;;;;;8.32;4.45;;;;;;;;;;4982837;28;20112;-64
2022/10/14 09:01:16;;;;;;;9.02;4.65;;;;;;;;;;4988924;28;20104;-61
2022/10/14 09:03:42;;;;;;;8.82;4.63;;;;;;;;;;4982847;28;20050;-65
2022/10/14 09:06:12;;;;;;;8.65;4.82;;;;;;;;;;4988137;28;20053;-65
2022/10/14 09:08:41;;;;;;;9.88;4.72;;;;;;;;;;4980696;28;20123;-66
2022/10/14 09:11:11;;;;;;;9.57;5.30;;;;;;;;;;4988653;28;20046;-64
2022/10/14 09:13:39;;;;;;;10.55;4.75;;;;;;;;;;4982330;28;20046;-63
2022/10/14 09:16:08;;;;;;;9.30;4.80;;;;;;;;;;4988090;28;20049;-61
2022/10/14 09:18:38;;;;;;;10.88;5.13;;;;;;;;;;4982378;28;20041;-66
2022/10/14 09:21:14;;;;;;;11.20;4.88;;;;;;;;;;4988421;28;20050;-66
2022/10/14 09:23:41;;;;;;;10.57;4.70;;;;;;;;;;4982026;28;20062;-64
2022/10/14 09:26:11;;;;;;;9.75;4.90;;;;;;;;;;4988302;28;20065;-64
2022/10/14 09:28:39;;;;;;;9.63;4.60;;;;;;;;;;4984099;28;20062;-66
2022/10/14 09:31:08;;;;;;;8.77;4.88;;;;;;;;;;4969064;28;20064;-65
2022/10/14 09:33:38;;;;;;;9.27;4.80;;;;;;;;;;4969558;28;20050;-67
2022/10/14 09:36:05;;;;;;;11.00;5.00;;;;;;;;;;4982228;28;20064;-64
2022/10/14 09:38:32;;;;;;;8.15;4.68;;;;;;;;;;4987557;28;20058;-67
2022/10/14 09:40:59;;;;;;;9.32;4.70;;;;;;;;;;5003147;28;20104;-67
2022/10/14 09:43:28;;;;;;;10.57;4.35;;;;;;;;;;4991781;28;20096;-66
2022/10/14 09:45:58;;;;;;;8.23;4.53;;;;;;;;;;4986090;28;20081;-62
2022/10/14 09:48:31;;;;;;;10.05;4.85;;;;;;;;;;4992213;28;20173;-66
2022/10/14 09:50:58;;;;;;;11.23;4.72;;;;;;;;;;4986108;28;20064;-65
2022/10/14 09:53:28;;;;;;;9.00;4.22;;;;;;;;;;4991593;28;20540;-63
2022/10/14 09:55:55;;;;;;;8.68;4.75;;;;;;;;;;4995784;28;20074;-66
2022/10/14 09:58:25;;;;;;;11.98;5.45;;;;;;;;;;5007980;28;20141;-65
2022/10/14 10:00:55;;;;;;;8.95;4.90;;;;;;;;;;5002486;28;20054;-66
2022/10/14 10:03:27;;;;;;;8.38;4.18;;;;;;;;;;4992324;28;20056;-66
2022/10/14 10:06:00;;;;;;;9.25;5.00;;;;;;;;;;4985559;28;20108;-67
2022/10/14 10:08:28;;;;;;;10.68;4.85;;;;;;;;;;4989737;28;20050;-63
2022/10/14 10:11:00;;;;;;;9.10;4.82;;;;;;;;;;4986023;28;20149;-66
2022/10/14 10:13:32;;;;;;;8.95;4.32;;;;;;;;;;4990930;28;20123;-65
2022/10/14 10:16:01;;;;;;;10.07;4.53;;;;;;;;;;4985100;28;20083;-63
2022/10/14 10:18:28;;;;;;;9.45;4.72;;;;;;;;;;4991827;28;20069;-63
2022/10/14 10:21:05;;;;;;;7.53;3.78;;;;;;;;;;4986564;28;20050;-67
2022/10/14 10:23:33;;;;;;;8.70;4.55;;;;;;;;;;4990325;28;20050;-66
2022/10/14 10:26:14;;;;;;;8.35;3.65;;;;;;;;;;4984940;28;20057;-62
2022/10/14 10:28:44;;;;;;;9.85;4.45;;;;;;;;;;4991771;28;20061;-66
2022/10/14 10:31:21;;;;;;;8.82;4.30;;;;;;;;;;4985858;28;20054;-65
2022/10/14 10:33:53;;;;;;;7.97;4.63;;;;;;;;;;4991516;28;20061;-67
2022/10/14 10:36:22;;;;;;;7.18;3.50;;;;;;;;;;4985311;28;20154;-63
2022/10/14 10:38:58;;;;;;;7.45;3.92;;;;;;;;;;4991246;28;20071;-66
2022/10/14 10:41:43;;;;;;;9.10;4.35;;;;;;;;;;4987349;28;20050;-64
2022/10/14 10:44:27;;;;;;;10.18;4.28;;;;;;;;;;4972226;28;20054;-68
2022/10/14 10:47:04;;;;;;;7.82;4.13;;;;;;;;;;4984128;28;20053;-63
2022/10/14 10:49:47;;;;;;;7.95;4.25;;;;;;;;;;4990996;28;20041;-60
2022/10/14 10:52:18;;;;;;;7.68;3.63;;;;;;;;;;4985380;28;20046;-60
2022/10/14 10:54:49;;;;;;;6.47;3.83;;;;;;;;;;4982572;28;20088;-60
2022/10/14 10:57:23;;;;;;;10.43;4.28;;;;;;;;;;4964384;28;20046;-65
2022/10/14 10:59:55;;;;;;;7.82;3.80;;;;;;;;;;4955464;28;20054;-60
2022/10/14 11:02:46;;;;;;;9.18;4.40;;;;;;;;;;4964941;28;20054;-65
2022/10/14 11:05:17;;;;;;;7.65;4.43;;;;;;;;;;4970916;28;20054;-64
2022/10/14 11:13:25;;;;;;;7.97;4.20;;;;;;;;;;4981349;28;20042;-66
2022/10/14 11:15:57;;;;;;;7.57;4.43;;;;;;;;;;4970576;28;20117;-66
2022/10/14 11:18:32;;;;;;;10.25;4.50;;;;;;;;;;4965046;28;20053;-67
2022/10/14 11:21:08;;;;;;;10.75;4.50;;;;;;;;;;4970831;28;20054;-67
2022/10/14 11:23:38;;;;;;;8.73;4.07;;;;;;;;;;4965389;28;20051;-63
2022/10/14 11:26:07;;;;;;;8.55;4.65;;;;;;;;;;4970341;28;20046;-66
2022/10/14 11:28:41;;;;;;;9.80;4.82;;;;;;;;;;4965242;28;20061;-64
2022/10/14 11:31:12;;;;;;;9.40;5.18;;;;;;;;;;4970585;28;20149;-63
2022/10/14 11:33:51;;;;;;;8.98;5.03;;;;;;;;;;4963592;28;20074;-68
2022/10/14 11:36:24;;;;;;;9.20;4.35;;;;;;;;;;4970151;28;20050;-64
2022/10/14 11:39:02;;;;;;;9.07;5.07;;;;;;;;;;4965156;28;20058;-68
2022/10/14 11:41:37;;;;;;;8.60;4.65;;;;;;;;;;4970053;28;20054;-62
2022/10/14 11:44:07;;;;;;;9.60;4.70;;;;;;;;;;4963955;28;20054;-66
2022/10/14 11:46:37;;;;;;;9.00;4.65;;;;;;;;;;4969117;28;20054;-67
2022/10/14 11:49:12;;;;;;;9.70;4.68;;;;;;;;;;4967265;28;20059;-65
2022/10/14 11:51:42;;;;;;;9.23;4.82;;;;;;;;;;4967812;28;20051;-64
2022/10/14 11:54:11;;;;;;;8.68;4.22;;;;;;;;;;4970364;28;20058;-60
2022/10/14 11:56:41;;;;;;;9.93;4.40;;;;;;;;;;4963386;28;20050;-62
2022/10/14 11:59:15;;;;;;;9.32;4.47;;;;;;;;;;4968976;28;20089;-64
2022/10/14 12:01:46;;;;;;;9.38;4.55;;;;;;;;;;4963967;28;20109;-63
2022/10/14 12:04:18;;;;;;;8.50;4.40;;;;;;;;;;4970098;28;20058;-62
2022/10/14 12:06:47;;;;;;;9.45;4.40;;;;;;;;;;4964045;28;20109;-62
2022/10/14 12:09:17;;;;;;;7.03;3.85;;;;;;;;;;4970036;28;20054;-61
2022/10/14 12:11:46;;;;;;;7.28;3.58;;;;;;;;;;4964141;28;20113;-65
2022/10/14 12:14:16;;;;;;;7.43;3.85;;;;;;;;;;4969553;28;20057;-64
2022/10/14 12:16:44;;;;;;;7.88;3.95;;;;;;;;;;4982011;28;20101;-64
2022/10/14 12:19:11;;;;;;;6.70;3.70;;;;;;;;;;4969882;28;20054;-66
2022/10/14 12:21:40;;;;;;;10.25;4.40;;;;;;;;;;4963696;28;20054;-64
2022/10/14 12:24:13;;;;;;;7.85;4.00;;;;;;;;;;4969308;28;20058;-62
2022/10/14 12:26:45;;;;;;;7.80;3.78;;;;;;;;;;4963917;28;20042;-62
2022/10/14 12:29:14;;;;;;;7.25;3.47;;;;;;;;;;4967953;28;20113;-62
2022/10/14 12:31:40;;;;;;;7.32;3.53;;;;;;;;;;4964028;28;20042;-60
2022/10/14 12:34:17;;;;;;;9.07;3.53;;;;;;;;;;4969757;28;20046;-63
2022/10/14 12:36:44;;;;;;;5.20;2.63;;;;;;;;;;4962489;28;20086;-65
2022/10/14 12:39:32;;;;;;;6.80;3.20;;;;;;;;;;4969720;28;20058;-61
2022/10/14 12:42:00;;;;;;;5.85;2.53;;;;;;;;;;4964007;28;20054;-62
2022/10/14 12:44:31;;;;;;;5.50;2.47;;;;;;;;;;4969606;28;20058;-64
2022/10/14 12:46:58;;;;;;;5.85;2.65;;;;;;;;;;4963716;28;20140;-62
2022/10/14 12:49:28;;;;;;;6.72;2.80;;;;;;;;;;4969415;28;20081;-60
2022/10/14 12:51:55;;;;;;;6.63;2.67;;;;;;;;;;4963743;28;20050;-66
2022/10/14 12:54:22;;;;;;;6.90;2.60;;;;;;;;;;4969063;28;20069;-66
2022/10/14 12:56:55;;;;;;;3.33;1.88;;;;;;;;;;4963675;28;20049;-66
2022/10/14 12:59:26;;;;;;;5.40;2.58;;;;;;;;;;4969101;28;20054;-66
2022/10/14 13:01:58;;;;;;;4.88;2.63;;;;;;;;;;4965972;28;20054;-65
2022/10/14 13:04:25;;;;;;;5.35;2.53;;;;;;;;;;4949745;28;20051;-64
2022/10/14 13:07:10;;;;;;;4.30;2.25;;;;;;;;;;4980024;28;20065;-64
2022/10/14 13:09:36;;;;;;;7.72;2.67;;;;;;;;;;4963708;28;20058;-64
2022/10/14 13:12:28;;;;;;;8.80;2.85;;;;;;;;;;4968949;28;20057;-62
2022/10/14 13:15:00;;;;;;;5.45;2.63;;;;;;;;;;4971562;28;20054;-62
2022/10/14 13:17:31;;;;;;;5.88;2.75;;;;;;;;;;4972755;28;20050;-66
2022/10/14 13:19:57;;;;;;;4.10;2.38;;;;;;;;;;4969947;28;20137;-62
2022/10/14 13:22:40;;;;;;;4.38;2.42;;;;;;;;;;4973205;28;20043;-64
2022/10/14 13:25:12;;;;;;;3.85;2.08;;;;;;;;;;4970741;28;20061;-65
2022/10/14 13:27:42;;;;;;;4.43;2.17;;;;;;;;;;4953331;28;20079;-67
2022/10/14 13:30:15;;;;;;;3.40;1.98;;;;;;;;;;4965813;28;20105;-64
2022/10/14 13:32:45;;;;;;;3.75;1.85;;;;;;;;;;4972960;28;20104;-66
2022/10/14 13:35:16;;;;;;;4.28;2.10;;;;;;;;;;4967106;28;20062;-64
2022/10/14 13:37:45;;;;;;;4.35;1.98;;;;;;;;;;4953264;28;20057;-65
2022/10/14 13:40:20;;;;;;;4.18;2.00;;;;;;;;;;4979173;28;20069;-66
2022/10/14 13:42:50;;;;;;;3.47;2.00;;;;;;;;;;4953568;28;20050;-64
2022/10/14 13:45:19;;;;;;;4.50;2.00;;;;;;;;;;4961905;28;20112;-66
2022/10/14 13:47:47;;;;;;;5.63;2.60;;;;;;;;;;4953554;28;20051;-65
2022/10/14 13:50:16;;;;;;;7.95;3.03;;;;;;;;;;4960408;28;20050;-63
2022/10/14 13:52:47;;;;;;;9.65;3.38;;;;;;;;;;4972430;28;20046;-63
2022/10/14 13:55:14;;;;;;;5.30;2.53;;;;;;;;;;4966536;28;20100;-63
2022/10/14 13:57:43;;;;;;;6.65;2.45;;;;;;;;;;4972028;28;20046;-64
2022/10/14 14:00:28;;;;;;;5.03;2.45;;;;;;;;;;4964661;28;20054;-67
2022/10/14 14:02:56;;;;;;;5.10;2.70;;;;;;;;;;4969656;28;20062;-63
2022/10/14 14:05:25;;;;;;;7.55;3.28;;;;;;;;;;4956322;28;20145;-68
2022/10/14 14:07:52;;;;;;;6.93;3.25;;;;;;;;;;4972314;28;20166;-68
2022/10/14 14:10:19;;;;;;;5.75;3.15;;;;;;;;;;4967364;28;20057;-67
2022/10/14 14:12:46;;;;;;;6.10;2.92;;;;;;;;;;4971852;28;20113;-65
2022/10/14 14:15:18;;;;;;;5.32;2.70;;;;;;;;;;4965586;28;20061;-65
2022/10/14 14:17:46;;;;;;;3.85;2.17;;;;;;;;;;4974007;28;20105;-63
2022/10/14 14:20:18;;;;;;;6.32;2.47;;;;;;;;;;4968478;28;21302;-62
2022/10/14 14:22:45;;;;;;;6.40;3.00;;;;;;;;;;4971967;28;20054;-67
2022/10/14 14:25:19;;;;;;;5.28;2.58;;;;;;;;;;4966056;28;20141;-63
2022/10/14 14:27:48;;;;;;;4.72;2.53;;;;;;;;;;4985030;28;20057;-66
2022/10/14 14:30:22;;;;;;;5.80;2.85;;;;;;;;;;4971736;28;20054;-68
2022/10/14 14:32:49;;;;;;;4.78;2.45;;;;;;;;;;4970860;28;20061;-63
2022/10/14 14:35:18;;;;;;;6.70;3.22;;;;;;;;;;4971526;28;20062;-67
2022/10/14 14:37:45;;;;;;;5.20;2.58;;;;;;;;;;4965918;28;20058;-67
2022/10/14 14:40:16;;;;;;;7.78;3.53;;;;;;;;;;4971444;28;20062;-65
2022/10/14 14:42:43;;;;;;;10.93;3.92;;;;;;;;;;4966245;28;20050;-64
2022/10/14 14:45:13;;;;;;;6.55;3.03;;;;;;;;;;4971816;28;20058;-65
2022/10/14 14:47:40;;;;;;;7.53;3.03;;;;;;;;;;4965784;28;20130;-65
2022/10/14 14:50:07;;;;;;;9.50;3.47;;;;;;;;;;4971161;28;20086;-65
2022/10/14 14:52:36;;;;;;;8.88;3.65;;;;;;;;;;4965943;28;20206;-65